createdAt,value
2022-08-30T00:00:20.183Z,65.14
2022-08-30T00:01:20.188Z,65.84
2022-08-30T00:02:20.251Z,66.14
2022-08-30T00:03:20.518Z,65.44
2022-08-30T00:04:20.118Z,66.35
2022-08-30T00:05:20.106Z,66.38
2022-08-30T00:06:20.087Z,66.28
2022-08-30T00:07:20.089Z,66.17
2022-08-30T00:08:20.049Z,65.57
2022-08-30T00:09:20.029Z,65.64
2022-08-30T00:10:20.027Z,65.57
2022-08-30T00:11:20.000Z,66.38
2022-08-30T00:12:20.007Z,65.57
2022-08-30T00:13:19.964Z,66.58
2022-08-30T00:14:19.946Z,66.28
2022-08-30T00:15:19.932Z,67.18
2022-08-30T00:16:20.030Z,67.28
2022-08-30T00:17:19.917Z,67.38
2022-08-30T00:18:19.896Z,67.98
2022-08-30T00:19:19.861Z,67.78
2022-08-30T00:20:19.846Z,67.58
2022-08-30T00:21:19.842Z,68.29
2022-08-30T00:22:19.829Z,67.98
2022-08-30T00:23:28.739Z,68.18
2022-08-30T00:24:29.788Z,67.68
2022-08-30T00:25:27.799Z,68.99
2022-08-30T00:26:27.821Z,68.18
2022-08-30T00:27:27.843Z,68.52
2022-08-30T00:28:28.864Z,69.02
2022-08-30T00:29:19.688Z,69.09
2022-08-30T00:30:19.691Z,69.12
2022-08-30T00:31:19.695Z,69.02
2022-08-30T00:32:19.635Z,69.22
2022-08-30T00:33:19.635Z,69.02
2022-08-30T00:34:19.616Z,68.72
2022-08-30T00:35:19.584Z,68.82
2022-08-30T00:36:19.568Z,69.42
2022-08-30T00:37:19.566Z,69.62
2022-08-30T00:38:19.538Z,69.22
2022-08-30T00:39:19.535Z,69.22
2022-08-30T00:40:19.532Z,69.52
2022-08-30T00:41:19.476Z,69.32
2022-08-30T00:42:19.460Z,69.59
2022-08-30T00:43:19.605Z,69.52
2022-08-30T00:44:19.441Z,69.92
2022-08-30T00:45:19.421Z,69.92
2022-08-30T00:46:19.411Z,70.03
2022-08-30T00:47:19.365Z,69.72
2022-08-30T00:48:19.371Z,69.92
2022-08-30T00:49:19.333Z,70.12
2022-08-30T00:50:19.318Z,70.03
2022-08-30T00:51:19.303Z,69.92
2022-08-30T00:52:19.303Z,70.23
2022-08-30T00:53:19.326Z,70.23
2022-08-30T00:54:19.248Z,70.23
2022-08-30T00:55:19.231Z,70.32
2022-08-30T00:56:19.216Z,70.53
2022-08-30T00:57:19.216Z,70.32
2022-08-30T00:58:19.182Z,70.43
2022-08-30T00:59:19.166Z,70.32
2022-08-30T01:00:19.146Z,70.32
2022-08-30T01:01:19.250Z,70.53
2022-08-30T01:02:19.162Z,70.93
2022-08-30T01:03:19.091Z,71.13
2022-08-30T01:04:19.086Z,70.83
2022-08-30T01:05:19.077Z,71.23
2022-08-30T01:06:19.050Z,71.03
2022-08-30T01:07:19.043Z,70.93
2022-08-30T01:08:19.005Z,71.03
2022-08-30T01:09:19.009Z,71.13
2022-08-30T01:10:18.987Z,71.23
2022-08-30T01:11:18.955Z,71.33
2022-08-30T01:12:18.936Z,71.33
2022-08-30T01:13:18.924Z,71.03
2022-08-30T01:14:18.923Z,71.23
2022-08-30T01:15:18.886Z,71.43
2022-08-30T01:16:18.882Z,71.63
2022-08-30T01:17:19.091Z,71.73
2022-08-30T01:18:18.886Z,71.63
2022-08-30T01:19:18.828Z,71.94
2022-08-30T01:20:18.793Z,71.43
2022-08-30T01:21:18.782Z,72.53
2022-08-30T01:22:18.780Z,72.13
2022-08-30T01:23:18.753Z,72.03
2022-08-30T01:24:18.747Z,72.44
2022-08-30T01:25:18.769Z,72.24
2022-08-30T01:26:19.796Z,72.13
2022-08-30T01:27:18.679Z,72.24
2022-08-30T01:28:18.661Z,72.53
2022-08-30T01:29:18.637Z,72.24
2022-08-30T01:30:18.629Z,72.24
2022-08-30T01:33:00.779Z,72.74
2022-08-30T01:34:00.761Z,72.94
2022-08-30T01:35:00.746Z,72.57
2022-08-30T01:36:00.729Z,72.84
2022-08-30T01:37:00.726Z,72.94
2022-08-30T01:38:00.696Z,73.04
2022-08-30T01:39:00.693Z,72.84
2022-08-30T01:40:00.731Z,72.94
2022-08-30T01:41:00.663Z,72.77
2022-08-30T01:42:00.623Z,72.84
2022-08-30T01:43:00.616Z,72.74
2022-08-30T01:44:00.609Z,73.24
2022-08-30T01:45:00.575Z,73.04
2022-08-30T01:46:00.597Z,73.44
2022-08-30T01:47:00.671Z,73.64
2022-08-30T01:48:02.644Z,73.07
2022-08-30T01:49:00.502Z,73.24
2022-08-30T01:50:00.485Z,72.77
2022-08-30T01:51:00.464Z,73.18
2022-08-30T01:52:01.525Z,73.68
2022-08-30T01:53:00.436Z,73.38
2022-08-30T01:54:00.410Z,73.27
2022-08-30T01:55:00.392Z,73.68
2022-08-30T01:56:00.385Z,73.38
2022-08-30T01:57:00.376Z,73.27
2022-08-30T01:58:00.346Z,73.68
2022-08-30T01:59:02.951Z,73.78
2022-08-30T02:00:00.308Z,73.88
2022-08-30T02:01:00.334Z,73.91
2022-08-30T02:02:00.273Z,73.58
2022-08-30T02:03:00.255Z,73.68
2022-08-30T02:04:00.400Z,73.58
2022-08-30T02:05:00.221Z,73.41
2022-08-30T02:06:00.202Z,74.62
2022-08-30T02:07:00.185Z,74.82
2022-08-30T02:08:00.181Z,75.32
2022-08-30T02:09:00.168Z,74.62
2022-08-30T02:10:00.149Z,74.62
2022-08-30T02:11:00.115Z,75.42
2022-08-30T02:12:00.099Z,74.62
2022-08-30T02:13:00.095Z,75.22
2022-08-30T02:14:00.087Z,75.12
2022-08-30T02:15:00.063Z,74.92
2022-08-30T02:16:00.047Z,75.22
2022-08-30T02:17:00.048Z,75.22
2022-08-30T02:18:00.002Z,74.82
2022-08-30T02:18:59.976Z,74.62
2022-08-30T02:19:59.955Z,74.82
2022-08-30T02:20:59.959Z,76.03
2022-08-30T02:21:59.941Z,75.32
2022-08-30T02:23:01.505Z,76.23
2022-08-30T02:23:59.885Z,75.22
2022-08-30T02:24:59.872Z,75.12
2022-08-30T02:25:59.867Z,75.22
2022-08-30T02:26:59.832Z,75.12
2022-08-30T02:27:59.813Z,75.32
2022-08-30T02:28:59.799Z,75.42
2022-08-30T02:29:59.781Z,75.22
2022-08-30T02:30:59.824Z,75.32
2022-08-30T02:31:59.765Z,75.22
2022-08-30T02:32:59.747Z,75.42
2022-08-30T02:33:59.728Z,75.22
2022-08-30T02:34:59.716Z,75.42
2022-08-30T02:35:59.686Z,76.23
2022-08-30T02:36:59.660Z,74.92
2022-08-30T02:37:59.638Z,75.12
2022-08-30T02:38:59.620Z,74.92
2022-08-30T02:39:59.645Z,75.02
2022-08-30T02:40:59.598Z,75.62
2022-08-30T02:41:59.565Z,75.42
2022-08-30T02:42:59.550Z,75.02
2022-08-30T02:43:59.544Z,75.22
2022-08-30T02:44:59.532Z,75.12
2022-08-30T02:45:59.565Z,74.92
2022-08-30T02:46:59.477Z,75.02
2022-08-30T02:47:59.476Z,75.42
2022-08-30T02:49:05.643Z,75.72
2022-08-30T02:49:59.426Z,75.42
2022-08-30T02:50:59.434Z,75.42
2022-08-30T02:51:59.396Z,75.52
2022-08-30T02:52:59.371Z,75.72
2022-08-30T02:53:59.374Z,75.52
2022-08-30T02:54:59.344Z,75.22
2022-08-30T02:55:59.324Z,75.92
2022-08-30T02:56:59.320Z,76.03
2022-08-30T02:57:59.311Z,75.92
2022-08-30T02:58:59.268Z,75.62
2022-08-30T02:59:59.262Z,75.72
2022-08-30T03:00:59.313Z,75.92
2022-08-30T03:01:59.229Z,76.03
2022-08-30T03:02:59.200Z,76.32
2022-08-30T03:03:59.227Z,75.72
2022-08-30T03:04:59.169Z,75.86
2022-08-30T03:05:59.142Z,76.03
2022-08-30T03:06:59.147Z,76.12
2022-08-30T03:07:59.115Z,76.32
2022-08-30T03:08:59.094Z,76.73
2022-08-30T03:09:59.076Z,76.06
2022-08-30T03:10:59.061Z,75.92
2022-08-30T03:11:59.054Z,76.46
2022-08-30T03:12:59.037Z,76.56
2022-08-30T03:13:59.003Z,76.97
2022-08-30T03:14:59.003Z,76.76
2022-08-30T03:17:41.317Z,76.76
2022-08-30T03:18:41.290Z,76.32
2022-08-30T03:19:41.275Z,76.97
2022-08-30T03:20:41.277Z,76.76
2022-08-30T03:21:41.241Z,76.36
2022-08-30T03:22:41.222Z,76.36
2022-08-30T03:23:41.217Z,76.56
2022-08-30T03:24:41.209Z,76.67
2022-08-30T03:25:41.171Z,76.87
2022-08-30T03:26:44.296Z,76.76
2022-08-30T03:27:41.144Z,76.26
2022-08-30T03:28:41.121Z,76.87
2022-08-30T03:29:41.122Z,76.87
2022-08-30T03:30:41.093Z,76.76
2022-08-30T03:31:52.991Z,76.56
2022-08-30T03:32:41.049Z,76.87
2022-08-30T03:33:41.030Z,76.87
2022-08-30T03:34:41.018Z,76.87
2022-08-30T03:35:41.022Z,76.97
2022-08-30T03:36:40.978Z,77.27
2022-08-30T03:37:40.964Z,77.67
2022-08-30T03:38:40.959Z,77.67
2022-08-30T03:39:40.924Z,77.47
2022-08-30T03:40:40.969Z,77.31
2022-08-30T03:41:40.910Z,77.70
2022-08-30T03:42:40.874Z,77.37
2022-08-30T03:43:40.848Z,77.47
2022-08-30T03:44:40.835Z,78.11
2022-08-30T03:45:40.851Z,77.17
2022-08-30T03:46:40.801Z,78.01
2022-08-30T03:47:41.874Z,77.97
2022-08-30T03:48:40.762Z,78.21
2022-08-30T03:49:40.750Z,77.70
2022-08-30T03:50:40.733Z,78.31
2022-08-30T03:51:40.731Z,78.21
2022-08-30T03:52:40.697Z,78.01
2022-08-30T03:53:40.676Z,77.81
2022-08-30T03:54:40.664Z,77.91
2022-08-30T03:55:40.642Z,78.41
2022-08-30T03:56:40.637Z,78.21
2022-08-30T03:57:43.409Z,78.41
2022-08-30T03:58:40.584Z,78.11
2022-08-30T03:59:40.572Z,78.31
2022-08-30T04:00:40.635Z,78.21
2022-08-30T04:01:40.534Z,78.31
2022-08-30T04:02:40.607Z,78.31
2022-08-30T04:03:40.497Z,78.21
2022-08-30T04:04:40.478Z,78.71
2022-08-30T04:05:40.463Z,78.71
2022-08-30T04:06:40.485Z,78.61
2022-08-30T04:07:40.429Z,78.91
2022-08-30T04:08:40.428Z,78.91
2022-08-30T04:09:40.404Z,78.81
2022-08-30T04:10:40.373Z,79.02
2022-08-30T04:11:40.352Z,78.91
2022-08-30T04:12:40.353Z,78.81
2022-08-30T04:13:40.321Z,79.02
2022-08-30T04:14:40.311Z,79.02
2022-08-30T04:15:40.282Z,79.11
2022-08-30T04:16:40.324Z,79.11
2022-08-30T04:17:40.252Z,78.91
2022-08-30T04:18:40.228Z,78.91
2022-08-30T04:19:40.230Z,78.81
2022-08-30T04:20:40.197Z,78.81
2022-08-30T04:21:43.072Z,79.11
2022-08-30T04:22:40.155Z,79.11
2022-08-30T04:23:40.139Z,79.32
2022-08-30T04:24:40.139Z,78.71
2022-08-30T04:25:40.108Z,79.11
2022-08-30T04:26:40.098Z,78.91
2022-08-30T04:27:40.069Z,79.42
2022-08-30T04:28:40.056Z,79.32
2022-08-30T04:29:40.036Z,79.22
2022-08-30T04:30:40.047Z,79.32
2022-08-30T04:31:40.071Z,78.81
2022-08-30T04:32:39.981Z,78.91
2022-08-30T04:33:39.962Z,79.32
2022-08-30T04:34:39.944Z,79.32
2022-08-30T04:35:39.924Z,79.52
2022-08-30T04:36:39.928Z,79.56
2022-08-30T04:37:39.890Z,79.22
2022-08-30T04:38:39.874Z,79.16
2022-08-30T04:39:39.852Z,79.42
2022-08-30T04:40:39.895Z,79.25
2022-08-30T04:41:39.837Z,79.25
2022-08-30T04:42:39.800Z,79.36
2022-08-30T04:43:39.777Z,79.25
2022-08-30T04:44:39.761Z,79.25
2022-08-30T04:45:39.830Z,79.46
2022-08-30T04:46:44.365Z,79.36
2022-08-30T04:47:39.707Z,79.56
2022-08-30T04:48:39.690Z,79.46
2022-08-30T04:49:39.697Z,79.36
2022-08-30T04:50:39.660Z,79.86
2022-08-30T04:51:39.658Z,79.96
2022-08-30T04:52:39.620Z,79.86
2022-08-30T04:53:39.605Z,79.76
2022-08-30T04:54:39.588Z,80.16
2022-08-30T04:55:39.567Z,80.06
2022-08-30T04:56:39.557Z,79.96
2022-08-30T04:57:39.551Z,80.06
2022-08-30T04:58:39.521Z,80.16
2022-08-30T04:59:39.503Z,80.30
2022-08-30T05:00:39.514Z,80.26
2022-08-30T05:01:44.535Z,80.50
2022-08-30T05:02:39.471Z,80.60
2022-08-30T05:03:39.423Z,80.70
2022-08-30T05:04:39.423Z,80.60
2022-08-30T05:05:39.396Z,80.60
2022-08-30T05:06:39.373Z,80.77
2022-08-30T05:07:39.355Z,80.66
2022-08-30T05:08:39.336Z,80.77
2022-08-30T05:09:39.334Z,80.90
2022-08-30T05:10:39.297Z,80.66
2022-08-30T05:11:39.295Z,80.77
2022-08-30T05:12:39.259Z,80.57
2022-08-30T05:13:39.266Z,80.77
2022-08-30T05:14:39.223Z,80.90
2022-08-30T05:15:39.207Z,80.90
2022-08-30T05:16:39.282Z,80.77
2022-08-30T05:17:39.171Z,80.66
2022-08-30T05:18:39.152Z,80.70
2022-08-30T05:19:39.137Z,80.87
2022-08-30T05:20:39.116Z,80.87
2022-08-30T05:21:39.117Z,80.90
2022-08-30T05:22:39.085Z,80.77
2022-08-30T05:23:39.069Z,80.80
2022-08-30T05:24:39.043Z,81.07
2022-08-30T05:25:39.046Z,80.77
2022-08-30T05:26:39.061Z,80.80
2022-08-30T05:27:38.992Z,80.77
2022-08-30T05:28:38.992Z,80.57
2022-08-30T05:29:38.958Z,80.60
2022-08-30T05:30:38.951Z,80.66
2022-08-30T05:31:38.983Z,80.77
2022-08-30T05:32:38.908Z,80.36
2022-08-30T05:33:39.075Z,80.66
2022-08-30T05:34:38.885Z,80.66
2022-08-30T05:35:38.863Z,80.77
2022-08-30T05:36:38.838Z,80.66
2022-08-30T05:37:38.813Z,80.66
2022-08-30T05:38:38.796Z,80.66
2022-08-30T05:39:50.941Z,80.77
2022-08-30T05:40:38.796Z,80.12
2022-08-30T05:41:38.749Z,80.12
2022-08-30T05:42:38.727Z,80.26
2022-08-30T05:43:38.722Z,80.73
2022-08-30T05:44:38.689Z,80.22
2022-08-30T05:45:38.677Z,79.92
2022-08-30T05:46:38.655Z,80.02
2022-08-30T05:47:38.630Z,79.88
2022-08-30T05:48:38.643Z,79.72
2022-08-30T05:49:38.598Z,79.79
2022-08-30T05:50:40.043Z,79.79
2022-08-30T05:51:42.975Z,79.79
2022-08-30T05:52:38.550Z,79.88
2022-08-30T05:53:38.551Z,78.78
2022-08-30T05:54:38.532Z,78.88
2022-08-30T05:55:38.487Z,78.78
2022-08-30T05:58:20.860Z,78.38
2022-08-30T05:59:20.857Z,78.67
2022-08-30T06:00:20.829Z,78.84
2022-08-30T06:01:20.806Z,78.84
2022-08-30T06:02:20.845Z,78.74
2022-08-30T06:03:20.809Z,79.04
2022-08-30T06:04:20.781Z,78.34
2022-08-30T06:05:20.740Z,78.54
2022-08-30T06:06:20.722Z,78.14
2022-08-30T06:07:22.831Z,77.94
2022-08-30T06:08:20.684Z,78.14
2022-08-30T06:09:20.692Z,78.14
2022-08-30T06:10:20.653Z,77.09
2022-08-30T06:11:20.649Z,77.20
2022-08-30T06:12:20.611Z,77.29
2022-08-30T06:13:20.592Z,77.39
2022-08-30T06:14:20.580Z,77.70
2022-08-30T06:15:20.572Z,77.39
2022-08-30T06:16:20.611Z,76.69
2022-08-30T06:17:20.523Z,76.05
2022-08-30T06:18:23.529Z,76.05
2022-08-30T06:19:20.489Z,76.96
2022-08-30T06:20:20.495Z,76.56
2022-08-30T06:21:20.468Z,77.06
2022-08-30T06:22:20.440Z,77.16
2022-08-30T06:23:20.417Z,76.35
2022-08-30T06:24:24.874Z,76.62
2022-08-30T06:25:20.415Z,76.12
2022-08-30T06:26:20.407Z,75.42
2022-08-30T06:27:20.351Z,74.91
2022-08-30T06:28:20.333Z,74.91
2022-08-30T06:29:20.318Z,75.21
2022-08-30T06:30:20.301Z,74.81
2022-08-30T06:31:20.378Z,75.27
2022-08-30T06:32:20.261Z,74.88
2022-08-30T06:33:20.241Z,74.77
2022-08-30T06:34:20.228Z,74.98
2022-08-30T06:35:20.210Z,75.18
2022-08-30T06:36:20.193Z,74.68
2022-08-30T06:37:29.150Z,74.98
2022-08-30T06:38:20.161Z,74.98
2022-08-30T06:39:20.154Z,74.77
2022-08-30T06:40:20.165Z,74.44
2022-08-30T06:41:20.104Z,74.94
2022-08-30T06:42:20.089Z,74.94
2022-08-30T06:43:20.070Z,75.24
2022-08-30T06:44:20.077Z,74.04
2022-08-30T06:45:20.035Z,75.04
2022-08-30T06:46:20.075Z,75.08
2022-08-30T06:47:20.001Z,74.74
2022-08-30T06:48:20.010Z,74.44
2022-08-30T06:49:19.966Z,74.44
2022-08-30T06:50:19.955Z,74.84
2022-08-30T06:51:19.930Z,75.18
2022-08-30T06:52:19.917Z,75.04
2022-08-30T06:53:19.899Z,74.64
2022-08-30T06:54:19.899Z,74.77
2022-08-30T06:55:19.861Z,74.84
2022-08-30T06:56:19.861Z,74.34
2022-08-30T06:57:19.827Z,74.44
2022-08-30T06:58:19.822Z,74.44
2022-08-30T06:59:19.800Z,74.64
2022-08-30T07:00:19.799Z,74.64
2022-08-30T07:01:19.854Z,74.64
2022-08-30T07:02:19.757Z,73.30
2022-08-30T07:03:19.747Z,73.40
2022-08-30T07:04:19.727Z,73.60
2022-08-30T07:05:28.535Z,73.60
2022-08-30T07:06:28.531Z,73.60
2022-08-30T07:07:29.554Z,73.50
2022-08-30T07:08:27.580Z,73.57
2022-08-30T07:09:27.635Z,72.86
2022-08-30T07:10:27.162Z,73.16
2022-08-30T07:11:28.647Z,72.93
2022-08-30T07:12:27.670Z,71.77
2022-08-30T07:13:28.712Z,72.13
2022-08-30T07:14:19.537Z,71.63
2022-08-30T07:15:19.537Z,72.13
2022-08-30T07:16:19.535Z,71.53
2022-08-30T07:17:19.501Z,71.43
2022-08-30T07:18:19.467Z,71.73
2022-08-30T07:19:20.575Z,71.53
2022-08-30T07:20:19.430Z,71.23
2022-08-30T07:21:19.419Z,71.23
2022-08-30T07:22:19.410Z,71.39
2022-08-30T07:23:19.382Z,71.09
2022-08-30T07:24:19.358Z,71.19
2022-08-30T07:25:20.057Z,71.30
2022-08-30T07:26:19.343Z,71.00
2022-08-30T07:27:19.308Z,71.19
2022-08-30T07:28:19.310Z,71.19
2022-08-30T07:29:19.282Z,71.09
2022-08-30T07:30:19.279Z,70.86
2022-08-30T07:31:19.240Z,70.56
2022-08-30T07:32:19.220Z,70.76
2022-08-30T07:33:19.520Z,70.76
2022-08-30T07:34:20.532Z,70.66
2022-08-30T07:35:19.178Z,70.23
2022-08-30T07:36:19.158Z,70.12
2022-08-30T07:37:19.139Z,70.43
2022-08-30T07:38:19.120Z,70.03
2022-08-30T07:39:19.122Z,70.12
2022-08-30T07:40:19.132Z,69.82
2022-08-30T07:41:19.074Z,69.12
2022-08-30T07:42:19.070Z,69.29
2022-08-30T07:43:19.190Z,69.32
2022-08-30T07:44:19.031Z,69.19
2022-08-30T07:45:19.024Z,69.19
2022-08-30T07:46:19.059Z,68.99
2022-08-30T07:47:18.975Z,68.99
2022-08-30T07:48:18.974Z,69.19
2022-08-30T07:49:18.970Z,69.39
2022-08-30T07:50:18.938Z,69.09
2022-08-30T07:51:18.907Z,68.99
2022-08-30T07:52:18.887Z,68.59
2022-08-30T07:53:19.085Z,68.66
2022-08-30T07:54:18.858Z,68.99
2022-08-30T07:55:18.860Z,69.09
2022-08-30T07:56:18.823Z,68.59
2022-08-30T07:57:18.806Z,68.46
2022-08-30T07:58:18.911Z,68.46
2022-08-30T07:59:18.772Z,68.66
2022-08-30T08:00:18.774Z,68.56
2022-08-30T08:01:18.808Z,68.86
2022-08-30T08:02:18.765Z,68.86
2022-08-30T08:03:18.709Z,68.56
2022-08-30T08:04:18.691Z,68.66
2022-08-30T08:05:22.063Z,68.76
2022-08-30T08:06:18.676Z,69.06
2022-08-30T08:07:18.642Z,68.76
2022-08-30T08:08:18.806Z,67.93
2022-08-30T08:09:18.623Z,68.03
2022-08-30T08:10:18.608Z,67.53
2022-08-30T08:11:18.589Z,67.49
2022-08-30T08:12:18.591Z,67.90
2022-08-30T08:13:18.545Z,67.69
2022-08-30T08:14:18.528Z,67.10
2022-08-30T08:15:18.515Z,67.10
2022-08-30T08:16:18.522Z,67.60
2022-08-30T08:17:18.509Z,66.70
2022-08-30T08:18:18.654Z,66.47
2022-08-30T08:19:18.461Z,66.86
2022-08-30T08:20:18.437Z,67.07
2022-08-30T08:21:18.437Z,67.16
2022-08-30T08:22:21.961Z,66.33
2022-08-30T08:23:18.419Z,65.94
2022-08-30T08:24:18.390Z,65.14
2022-08-30T08:25:18.357Z,65.04
2022-08-30T08:26:18.340Z,65.23
2022-08-30T08:27:18.327Z,64.94
2022-08-30T08:28:18.506Z,65.61
2022-08-30T08:29:18.309Z,64.90
2022-08-30T08:30:18.283Z,64.71
2022-08-30T08:31:18.359Z,65.41
2022-08-30T08:32:18.257Z,64.61
2022-08-30T08:33:18.228Z,64.94
2022-08-30T08:34:18.212Z,64.81
2022-08-30T08:35:18.213Z,65.23
2022-08-30T08:36:18.175Z,65.44
2022-08-30T08:37:18.184Z,65.34
2022-08-30T08:38:18.321Z,65.23
2022-08-30T08:39:18.133Z,64.84
2022-08-30T08:40:18.226Z,64.94
2022-08-30T08:41:18.102Z,65.47
2022-08-30T08:42:18.081Z,65.37
2022-08-30T08:43:18.098Z,65.67
2022-08-30T08:44:18.054Z,65.07
2022-08-30T08:45:18.039Z,65.64
2022-08-30T08:46:18.043Z,64.54
2022-08-30T08:47:18.011Z,64.11
2022-08-30T08:48:18.221Z,63.41
2022-08-30T08:49:17.982Z,64.31
2022-08-30T08:50:18.698Z,64.48
2022-08-30T08:51:17.940Z,63.98
2022-08-30T08:52:17.935Z,63.45
2022-08-30T08:53:36.129Z,63.15
2022-08-30T08:54:17.923Z,62.42
2022-08-30T08:55:17.895Z,62.32
2022-08-30T08:56:17.875Z,60.93
2022-08-30T08:57:21.397Z,60.70
2022-08-30T08:58:17.982Z,61.17
2022-08-30T08:59:17.819Z,60.77
2022-08-30T09:00:17.919Z,60.38
2022-08-30T09:01:17.807Z,60.77
2022-08-30T09:02:17.780Z,59.95
2022-08-30T09:03:17.758Z,59.25
2022-08-30T09:04:17.748Z,58.86
2022-08-30T09:05:17.759Z,58.95
2022-08-30T09:06:17.732Z,59.75
2022-08-30T09:07:17.726Z,59.05
2022-08-30T09:08:17.835Z,59.55
2022-08-30T09:09:17.687Z,58.36
2022-08-30T09:10:23.005Z,58.16
2022-08-30T09:11:17.657Z,58.36
2022-08-30T09:12:17.624Z,58.65
2022-08-30T09:14:17.594Z,57.86
2022-08-30T09:15:17.577Z,58.56
2022-08-30T09:16:22.391Z,57.83
2022-08-30T09:17:17.566Z,58.03
2022-08-30T09:18:19.607Z,57.93
2022-08-30T09:19:17.520Z,57.64
2022-08-30T09:20:17.512Z,58.43
2022-08-30T09:21:17.489Z,58.53
2022-08-30T09:22:17.489Z,58.10
2022-08-30T09:23:17.613Z,57.60
2022-08-30T09:24:17.449Z,57.08
2022-08-30T09:25:17.432Z,57.35
2022-08-30T09:26:17.412Z,56.83
2022-08-30T09:27:17.439Z,56.23
2022-08-30T09:28:17.593Z,55.83
2022-08-30T09:29:17.383Z,55.71
2022-08-30T09:30:17.447Z,56.28
2022-08-30T09:31:17.423Z,54.96
2022-08-30T09:32:25.200Z,55.43
2022-08-30T09:33:17.320Z,55.01
2022-08-30T09:34:17.325Z,54.12
2022-08-30T09:35:17.299Z,53.30
2022-08-30T09:36:17.280Z,52.29
2022-08-30T09:37:17.252Z,52.76
2022-08-30T09:38:17.447Z,51.77
2022-08-30T09:39:17.257Z,50.85
2022-08-30T09:40:17.324Z,50.85
2022-08-30T09:41:17.282Z,50.83
2022-08-30T09:42:17.189Z,51.20
2022-08-30T09:43:17.204Z,50.41
2022-08-30T09:44:17.166Z,49.38
2022-08-30T09:45:17.157Z,48.98
2022-08-30T09:46:17.176Z,49.28
2022-08-30T09:47:19.894Z,49.26
2022-08-30T09:48:17.267Z,48.57
2022-08-30T09:49:17.119Z,48.96
2022-08-30T09:50:17.091Z,48.44
2022-08-30T09:51:17.073Z,48.25
2022-08-30T09:52:17.074Z,48.35
2022-08-30T09:53:23.411Z,48.64
2022-08-30T09:54:18.380Z,48.44
2022-08-30T09:55:17.026Z,48.05
2022-08-30T09:56:17.037Z,48.35
2022-08-30T09:57:17.023Z,48.35
2022-08-30T09:58:17.291Z,48.44
2022-08-30T09:59:16.991Z,48.14
2022-08-30T10:00:17.009Z,48.47
2022-08-30T10:01:16.997Z,47.11
2022-08-30T10:02:16.990Z,48.79
2022-08-30T10:03:26.290Z,49.60
2022-08-30T10:04:16.942Z,48.29
2022-08-30T10:05:16.935Z,48.32
2022-08-30T10:06:16.901Z,48.63
2022-08-30T10:07:16.890Z,49.22
2022-08-30T10:08:16.902Z,48.91
2022-08-30T10:09:16.870Z,49.40
2022-08-30T10:11:59.153Z,47.90
2022-08-30T10:12:59.176Z,48.27
2022-08-30T10:13:59.227Z,48.35
2022-08-30T10:14:59.140Z,48.94
2022-08-30T10:15:59.160Z,46.97
2022-08-30T10:16:59.697Z,46.97
2022-08-30T10:17:59.096Z,46.99
2022-08-30T10:18:59.111Z,48.22
2022-08-30T10:19:59.075Z,48.63
2022-08-30T10:20:59.058Z,49.67
2022-08-30T10:21:59.061Z,49.67
2022-08-30T10:22:59.037Z,50.56
2022-08-30T10:23:59.028Z,50.29
2022-08-30T10:24:59.072Z,49.79
2022-08-30T10:25:59.010Z,50.48
2022-08-30T10:26:59.016Z,50.68
2022-08-30T10:27:58.992Z,51.59
2022-08-30T10:28:58.981Z,51.79
2022-08-30T10:29:59.505Z,50.90
2022-08-30T10:30:58.978Z,51.37
2022-08-30T10:31:58.939Z,51.00
2022-08-30T10:32:58.926Z,50.21
2022-08-30T10:33:58.918Z,49.82
2022-08-30T10:34:58.907Z,51.30
2022-08-30T10:35:58.896Z,50.41
2022-08-30T10:36:58.901Z,49.82
2022-08-30T10:37:58.880Z,51.32
2022-08-30T10:38:58.872Z,51.13
2022-08-30T10:39:58.866Z,50.76
2022-08-30T10:40:58.849Z,50.95
2022-08-30T10:41:58.843Z,51.94
2022-08-30T10:42:58.837Z,52.04
2022-08-30T10:43:58.807Z,52.26
2022-08-30T10:44:58.818Z,52.36
2022-08-30T10:45:58.780Z,52.96
2022-08-30T10:46:58.834Z,53.03
2022-08-30T10:47:58.773Z,52.73
2022-08-30T10:48:58.743Z,52.83
2022-08-30T10:49:58.737Z,52.64
2022-08-30T10:50:58.734Z,52.91
2022-08-30T10:52:58.731Z,51.92
2022-08-30T10:53:58.688Z,51.10
2022-08-30T10:54:58.670Z,51.70
2022-08-30T10:55:58.658Z,51.79
2022-08-30T10:56:58.654Z,50.81
2022-08-30T10:57:58.659Z,51.82
2022-08-30T11:00:40.678Z,51.32
2022-08-30T11:01:46.363Z,50.73
2022-08-30T11:02:40.675Z,51.23
2022-08-30T11:03:40.643Z,52.19
2022-08-30T11:04:40.646Z,51.00
2022-08-30T11:05:40.742Z,50.83
2022-08-30T11:06:40.611Z,50.90
2022-08-30T11:07:40.604Z,50.88
2022-08-30T11:08:40.581Z,51.47
2022-08-30T11:09:40.594Z,49.27
2022-08-30T11:10:40.555Z,49.55
2022-08-30T11:11:40.692Z,48.83
2022-08-30T11:12:40.535Z,49.60
2022-08-30T11:13:40.520Z,49.20
2022-08-30T11:14:40.513Z,49.60
2022-08-30T11:15:40.517Z,49.20
2022-08-30T11:16:40.484Z,48.61
2022-08-30T11:17:40.476Z,48.91
2022-08-30T11:18:40.482Z,49.20
2022-08-30T11:19:40.814Z,48.32
2022-08-30T11:20:40.437Z,48.24
2022-08-30T11:21:40.450Z,49.15
2022-08-30T11:22:40.414Z,48.86
2022-08-30T11:23:40.404Z,49.55
2022-08-30T11:24:40.399Z,49.45
2022-08-30T11:25:40.387Z,49.74
2022-08-30T11:26:40.385Z,48.93
2022-08-30T11:27:40.368Z,49.33
2022-08-30T11:28:40.350Z,49.60
2022-08-30T11:29:40.340Z,48.91
2022-08-30T11:30:40.322Z,47.13
2022-08-30T11:31:40.597Z,48.32
2022-08-30T11:32:40.330Z,48.69
2022-08-30T11:33:40.293Z,47.01
2022-08-30T11:34:40.286Z,46.94
2022-08-30T11:36:46.054Z,47.92
2022-08-30T11:37:40.263Z,47.92
2022-08-30T11:38:40.240Z,47.70
2022-08-30T11:39:40.231Z,46.84
2022-08-30T11:40:40.219Z,47.11
2022-08-30T11:41:43.156Z,46.42
2022-08-30T11:43:40.382Z,47.72
2022-08-30T11:44:40.191Z,46.74
2022-08-30T11:45:40.203Z,46.54
2022-08-30T11:46:40.183Z,46.72
2022-08-30T11:47:40.138Z,46.81
2022-08-30T11:48:40.135Z,45.83
2022-08-30T11:49:40.119Z,45.53
2022-08-30T11:50:40.110Z,46.10
2022-08-30T11:51:40.098Z,45.71
2022-08-30T11:52:40.108Z,45.41
2022-08-30T11:53:40.078Z,45.12
2022-08-30T11:54:40.072Z,46.59
2022-08-30T11:55:40.058Z,46.08
2022-08-30T11:56:40.046Z,44.58
2022-08-30T11:57:40.048Z,44.68
2022-08-30T11:58:40.028Z,44.88
2022-08-30T11:59:40.008Z,43.91
2022-08-30T12:00:40.804Z,44.60
2022-08-30T12:01:50.507Z,43.82
2022-08-30T12:02:40.082Z,44.90
2022-08-30T12:03:40.132Z,45.29
2022-08-30T12:04:39.961Z,43.42
2022-08-30T12:05:39.970Z,44.62
2022-08-30T12:06:39.941Z,44.90
2022-08-30T12:07:39.930Z,44.92
2022-08-30T12:08:39.928Z,44.82
2022-08-30T12:09:39.921Z,45.12
2022-08-30T12:10:39.908Z,44.62
2022-08-30T12:11:39.885Z,43.64
2022-08-30T12:12:39.875Z,43.86
2022-08-30T12:13:39.879Z,44.15
2022-08-30T12:14:41.079Z,43.48
2022-08-30T12:15:39.852Z,44.76
2022-08-30T12:16:39.859Z,45.67
2022-08-30T12:17:39.828Z,45.36
2022-08-30T12:18:40.730Z,46.74
2022-08-30T12:19:41.314Z,44.67
2022-08-30T12:20:39.813Z,45.16
2022-08-30T12:21:44.813Z,45.36
2022-08-30T12:22:39.762Z,46.04
2022-08-30T12:23:44.657Z,46.34
2022-08-30T12:24:39.754Z,46.66
2022-08-30T12:25:39.747Z,46.84
2022-08-30T12:26:39.713Z,46.84
2022-08-30T12:27:39.711Z,46.44
2022-08-30T12:28:41.989Z,46.76
2022-08-30T12:29:39.682Z,46.86
2022-08-30T12:30:39.677Z,46.96
2022-08-30T12:31:39.707Z,46.76
2022-08-30T12:32:39.663Z,46.56
2022-08-30T12:33:41.301Z,46.26
2022-08-30T12:34:39.631Z,46.56
2022-08-30T12:35:39.615Z,46.47
2022-08-30T12:36:39.628Z,46.96
2022-08-30T12:37:42.142Z,46.94
2022-08-30T12:38:39.604Z,45.95
2022-08-30T12:39:39.572Z,46.22
2022-08-30T12:40:39.585Z,45.53
2022-08-30T12:41:43.576Z,45.41
2022-08-30T12:42:39.568Z,46.89
2022-08-30T12:43:41.423Z,45.88
2022-08-30T12:44:39.516Z,45.78
2022-08-30T12:45:39.601Z,45.07
2022-08-30T12:46:39.512Z,44.51
2022-08-30T12:47:39.474Z,45.27
2022-08-30T12:48:39.467Z,43.60
2022-08-30T12:49:39.481Z,44.88
2022-08-30T12:50:39.453Z,44.78
2022-08-30T12:51:39.429Z,45.17
2022-08-30T12:52:39.420Z,43.89
2022-08-30T12:53:39.405Z,44.68
2022-08-30T12:54:39.405Z,45.37
2022-08-30T12:55:39.416Z,44.85
2022-08-30T12:56:49.523Z,44.54
2022-08-30T12:57:39.372Z,45.23
2022-08-30T12:58:39.351Z,43.75
2022-08-30T12:59:39.365Z,43.85
2022-08-30T13:00:39.375Z,42.57
2022-08-30T13:01:39.406Z,42.86
2022-08-30T13:02:39.330Z,42.35
2022-08-30T13:03:39.293Z,41.78
2022-08-30T13:04:39.287Z,43.06